sensor_id;sensor_type;location;lat;lon;timestamp;P1;durP1;ratioP1;P2;durP2;ratioP2
77204;SDS011;67992;46.618;18.850;2023-02-22T00:00:55;0.00;;;0.00;;
77204;SDS011;67992;46.618;18.850;2023-02-22T00:03:27;0.00;;;0.00;;
77204;SDS011;67992;46.618;18.850;2023-02-22T00:06:04;0.00;;;0.00;;
77204;SDS011;67992;46.618;18.850;2023-02-22T00:08:33;0.00;;;0.00;;
77204;SDS011;67992;46.618;18.850;2023-02-22T00:11:03;0.00;;;0.00;;
77204;SDS011;67992;46.618;18.850;2023-02-22T00:13:35;0.00;;;0.00;;
77204;SDS011;67992;46.618;18.850;2023-02-22T00:16:03;0.00;;;0.00;;
77204;SDS011;67992;46.618;18.850;2023-02-22T00:18:29;0.00;;;0.00;;
77204;SDS011;67992;46.618;18.850;2023-02-22T00:20:55;0.00;;;0.00;;
77204;SDS011;67992;46.618;18.850;2023-02-22T00:23:28;0.00;;;0.00;;
77204;SDS011;67992;46.618;18.850;2023-02-22T00:25:55;0.00;;;0.00;;
77204;SDS011;67992;46.618;18.850;2023-02-22T00:28:25;0.00;;;0.00;;
77204;SDS011;67992;46.618;18.850;2023-02-22T00:30:51;0.00;;;0.00;;
77204;SDS011;67992;46.618;18.850;2023-02-22T00:33:19;0.00;;;0.00;;
77204;SDS011;67992;46.618;18.850;2023-02-22T00:35:47;0.00;;;0.00;;
77204;SDS011;67992;46.618;18.850;2023-02-22T00:38:14;0.00;;;0.00;;
77204;SDS011;67992;46.618;18.850;2023-02-22T00:40:42;0.00;;;0.00;;
77204;SDS011;67992;46.618;18.850;2023-02-22T00:43:09;0.00;;;0.00;;
77204;SDS011;67992;46.618;18.850;2023-02-22T00:45:35;0.00;;;0.00;;
77204;SDS011;67992;46.618;18.850;2023-02-22T00:48:07;0.00;;;0.00;;
77204;SDS011;67992;46.618;18.850;2023-02-22T00:53:02;0.00;;;0.00;;
77204;SDS011;67992;46.618;18.850;2023-02-22T00:55:33;0.00;;;0.00;;
77204;SDS011;67992;46.618;18.850;2023-02-22T00:58:00;0.00;;;0.00;;
77204;SDS011;67992;46.618;18.850;2023-02-22T01:00:28;0.00;;;0.00;;
77204;SDS011;67992;46.618;18.850;2023-02-22T01:02:59;0.00;;;0.00;;
77204;SDS011;67992;46.618;18.850;2023-02-22T01:05:26;0.00;;;0.00;;
77204;SDS011;67992;46.618;18.850;2023-02-22T01:07:55;0.00;;;0.00;;
77204;SDS011;67992;46.618;18.850;2023-02-22T01:10:23;0.08;;;0.08;;
77204;SDS011;67992;46.618;18.850;2023-02-22T01:12:50;0.00;;;0.00;;
77204;SDS011;67992;46.618;18.850;2023-02-22T01:15:20;0.00;;;0.00;;
77204;SDS011;67992;46.618;18.850;2023-02-22T01:17:50;0.00;;;0.00;;
77204;SDS011;67992;46.618;18.850;2023-02-22T01:20:20;0.00;;;0.00;;
77204;SDS011;67992;46.618;18.850;2023-02-22T01:22:50;0.00;;;0.00;;
77204;SDS011;67992;46.618;18.850;2023-02-22T01:25:19;0.00;;;0.00;;
77204;SDS011;67992;46.618;18.850;2023-02-22T01:27:49;0.00;;;0.00;;
77204;SDS011;67992;46.618;18.850;2023-02-22T01:30:19;0.00;;;0.00;;
77204;SDS011;67992;46.618;18.850;2023-02-22T01:32:46;0.00;;;0.00;;
77204;SDS011;67992;46.618;18.850;2023-02-22T01:35:17;0.00;;;0.00;;
77204;SDS011;67992;46.618;18.850;2023-02-22T01:37:48;0.00;;;0.00;;
77204;SDS011;67992;46.618;18.850;2023-02-22T01:43:25;0.00;;;0.00;;
77204;SDS011;67992;46.618;18.850;2023-02-22T01:45:54;0.00;;;0.00;;
77204;SDS011;67992;46.618;18.850;2023-02-22T01:48:28;0.00;;;0.00;;
77204;SDS011;67992;46.618;18.850;2023-02-22T01:51:52;0.00;;;0.00;;
77204;SDS011;67992;46.618;18.850;2023-02-22T01:57:04;0.00;;;0.00;;
77204;SDS011;67992;46.618;18.850;2023-02-22T01:59:34;0.00;;;0.00;;
77204;SDS011;67992;46.618;18.850;2023-02-22T02:04:32;0.00;;;0.00;;
77204;SDS011;67992;46.618;18.850;2023-02-22T02:07:02;0.00;;;0.00;;
77204;SDS011;67992;46.618;18.850;2023-02-22T02:09:36;0.00;;;0.00;;
77204;SDS011;67992;46.618;18.850;2023-02-22T02:12:08;0.00;;;0.00;;
77204;SDS011;67992;46.618;18.850;2023-02-22T02:14:43;0.00;;;0.00;;
77204;SDS011;67992;46.618;18.850;2023-02-22T02:17:09;0.00;;;0.00;;
77204;SDS011;67992;46.618;18.850;2023-02-22T02:23:30;0.00;;;0.00;;
77204;SDS011;67992;46.618;18.850;2023-02-22T02:31:17;0.00;;;0.00;;
77204;SDS011;67992;46.618;18.850;2023-02-22T02:42:02;0.00;;;0.00;;
77204;SDS011;67992;46.618;18.850;2023-02-22T02:44:36;0.00;;;0.00;;
77204;SDS011;67992;46.618;18.850;2023-02-22T02:47:11;0.00;;;0.00;;
77204;SDS011;67992;46.618;18.850;2023-02-22T02:50:05;0.00;;;0.00;;
77204;SDS011;67992;46.618;18.850;2023-02-22T02:52:44;0.00;;;0.00;;
77204;SDS011;67992;46.618;18.850;2023-02-22T02:55:22;0.00;;;0.00;;
77204;SDS011;67992;46.618;18.850;2023-02-22T02:57:50;0.00;;;0.00;;
77204;SDS011;67992;46.618;18.850;2023-02-22T03:00:19;0.00;;;0.00;;
77204;SDS011;67992;46.618;18.850;2023-02-22T03:11:18;0.00;;;0.00;;
77204;SDS011;67992;46.618;18.850;2023-02-22T03:16:37;0.00;;;0.00;;
77204;SDS011;67992;46.618;18.850;2023-02-22T03:19:15;0.00;;;0.00;;
77204;SDS011;67992;46.618;18.850;2023-02-22T03:27:02;0.00;;;0.00;;
77204;SDS011;67992;46.618;18.850;2023-02-22T03:29:35;0.00;;;0.00;;
77204;SDS011;67992;46.618;18.850;2023-02-22T03:32:08;0.00;;;0.00;;
77204;SDS011;67992;46.618;18.850;2023-02-22T03:34:46;0.00;;;0.00;;
77204;SDS011;67992;46.618;18.850;2023-02-22T03:37:24;0.00;;;0.00;;
77204;SDS011;67992;46.618;18.850;2023-02-22T03:39:54;0.00;;;0.00;;
77204;SDS011;67992;46.618;18.850;2023-02-22T03:42:26;0.00;;;0.00;;
77204;SDS011;67992;46.618;18.850;2023-02-22T03:44:59;0.00;;;0.00;;
77204;SDS011;67992;46.618;18.850;2023-02-22T03:47:39;0.00;;;0.00;;
77204;SDS011;67992;46.618;18.850;2023-02-22T03:50:17;0.00;;;0.00;;
77204;SDS011;67992;46.618;18.850;2023-02-22T03:52:50;0.00;;;0.00;;
77204;SDS011;67992;46.618;18.850;2023-02-22T03:55:20;0.00;;;0.00;;
77204;SDS011;67992;46.618;18.850;2023-02-22T03:57:53;0.00;;;0.00;;
77204;SDS011;67992;46.618;18.850;2023-02-22T04:05:40;0.00;;;0.00;;
77204;SDS011;67992;46.618;18.850;2023-02-22T04:08:05;0.00;;;0.00;;
77204;SDS011;67992;46.618;18.850;2023-02-22T04:10:31;0.00;;;0.00;;
77204;SDS011;67992;46.618;18.850;2023-02-22T04:13:04;0.00;;;0.00;;
77204;SDS011;67992;46.618;18.850;2023-02-22T04:15:38;0.00;;;0.00;;
77204;SDS011;67992;46.618;18.850;2023-02-22T04:18:04;0.00;;;0.00;;
77204;SDS011;67992;46.618;18.850;2023-02-22T04:20:33;0.00;;;0.00;;
77204;SDS011;67992;46.618;18.850;2023-02-22T04:23:12;0.00;;;0.00;;
77204;SDS011;67992;46.618;18.850;2023-02-22T04:25:40;0.00;;;0.00;;
77204;SDS011;67992;46.618;18.850;2023-02-22T04:28:07;0.00;;;0.00;;
77204;SDS011;67992;46.618;18.850;2023-02-22T04:30:35;0.00;;;0.00;;
77204;SDS011;67992;46.618;18.850;2023-02-22T04:33:06;0.00;;;0.00;;
77204;SDS011;67992;46.618;18.850;2023-02-22T04:35:34;0.00;;;0.00;;
77204;SDS011;67992;46.618;18.850;2023-02-22T04:38:06;0.00;;;0.00;;
77204;SDS011;67992;46.618;18.850;2023-02-22T04:40:34;0.00;;;0.00;;
77204;SDS011;67992;46.618;18.850;2023-02-22T04:43:00;0.00;;;0.00;;
77204;SDS011;67992;46.618;18.850;2023-02-22T04:45:32;0.00;;;0.00;;
77204;SDS011;67992;46.618;18.850;2023-02-22T04:48:01;0.00;;;0.00;;
77204;SDS011;67992;46.618;18.850;2023-02-22T04:50:28;0.00;;;0.00;;
77204;SDS011;67992;46.618;18.850;2023-02-22T04:52:58;0.00;;;0.00;;
77204;SDS011;67992;46.618;18.850;2023-02-22T04:55:26;0.00;;;0.00;;
77204;SDS011;67992;46.618;18.850;2023-02-22T04:57:55;0.00;;;0.00;;
77204;SDS011;67992;46.618;18.850;2023-02-22T05:00:26;0.00;;;0.00;;
77204;SDS011;67992;46.618;18.850;2023-02-22T05:02:52;0.00;;;0.00;;
77204;SDS011;67992;46.618;18.850;2023-02-22T05:05:20;0.00;;;0.00;;
77204;SDS011;67992;46.618;18.850;2023-02-22T05:07:49;0.00;;;0.00;;
77204;SDS011;67992;46.618;18.850;2023-02-22T05:10:15;0.00;;;0.00;;
77204;SDS011;67992;46.618;18.850;2023-02-22T05:12:43;0.00;;;0.00;;
77204;SDS011;67992;46.618;18.850;2023-02-22T05:15:14;0.00;;;0.00;;
77204;SDS011;67992;46.618;18.850;2023-02-22T05:17:46;0.00;;;0.00;;
77204;SDS011;67992;46.618;18.850;2023-02-22T05:20:16;0.00;;;0.00;;
77204;SDS011;67992;46.618;18.850;2023-02-22T05:22:52;0.00;;;0.00;;
77204;SDS011;67992;46.618;18.850;2023-02-22T05:25:26;0.00;;;0.00;;
77204;SDS011;67992;46.618;18.850;2023-02-22T05:27:57;0.00;;;0.00;;
77204;SDS011;67992;46.618;18.850;2023-02-22T05:30:30;0.00;;;0.00;;
77204;SDS011;67992;46.618;18.850;2023-02-22T05:33:00;0.00;;;0.00;;
77204;SDS011;67992;46.618;18.850;2023-02-22T05:35:32;0.00;;;0.00;;
77204;SDS011;67992;46.618;18.850;2023-02-22T05:38:01;0.00;;;0.00;;
77204;SDS011;67992;46.618;18.850;2023-02-22T05:40:32;0.00;;;0.00;;
77204;SDS011;67992;46.618;18.850;2023-02-22T05:43:01;0.00;;;0.00;;
77204;SDS011;67992;46.618;18.850;2023-02-22T05:45:30;0.00;;;0.00;;
77204;SDS011;67992;46.618;18.850;2023-02-22T05:48:03;0.00;;;0.00;;
77204;SDS011;67992;46.618;18.850;2023-02-22T05:50:29;0.00;;;0.00;;
77204;SDS011;67992;46.618;18.850;2023-02-22T05:52:55;0.00;;;0.00;;
77204;SDS011;67992;46.618;18.850;2023-02-22T05:55:23;0.00;;;0.00;;
77204;SDS011;67992;46.618;18.850;2023-02-22T05:57:52;0.00;;;0.00;;
77204;SDS011;67992;46.618;18.850;2023-02-22T06:00:25;0.00;;;0.00;;
77204;SDS011;67992;46.618;18.850;2023-02-22T06:05:29;0.00;;;0.00;;
77204;SDS011;67992;46.618;18.850;2023-02-22T06:07:58;0.00;;;0.00;;
77204;SDS011;67992;46.618;18.850;2023-02-22T06:10:25;0.00;;;0.00;;
77204;SDS011;67992;46.618;18.850;2023-02-22T06:12:51;0.00;;;0.00;;
77204;SDS011;67992;46.618;18.850;2023-02-22T06:17:57;0.00;;;0.00;;
77204;SDS011;67992;46.618;18.850;2023-02-22T06:20:29;0.00;;;0.00;;
77204;SDS011;67992;46.618;18.850;2023-02-22T06:22:59;0.00;;;0.00;;
77204;SDS011;67992;46.618;18.850;2023-02-22T06:25:28;0.00;;;0.00;;
77204;SDS011;67992;46.618;18.850;2023-02-22T06:28:00;0.00;;;0.00;;
77204;SDS011;67992;46.618;18.850;2023-02-22T06:30:28;0.00;;;0.00;;
77204;SDS011;67992;46.618;18.850;2023-02-22T06:33:00;0.00;;;0.00;;
77204;SDS011;67992;46.618;18.850;2023-02-22T06:35:29;0.00;;;0.00;;
77204;SDS011;67992;46.618;18.850;2023-02-22T06:37:57;0.00;;;0.00;;
77204;SDS011;67992;46.618;18.850;2023-02-22T06:40:26;0.00;;;0.00;;
77204;SDS011;67992;46.618;18.850;2023-02-22T06:42:57;0.00;;;0.00;;
77204;SDS011;67992;46.618;18.850;2023-02-22T06:45:24;0.00;;;0.00;;
77204;SDS011;67992;46.618;18.850;2023-02-22T06:47:55;0.00;;;0.00;;
77204;SDS011;67992;46.618;18.850;2023-02-22T06:50:26;0.00;;;0.00;;
77204;SDS011;67992;46.618;18.850;2023-02-22T06:52:54;0.00;;;0.00;;
77204;SDS011;67992;46.618;18.850;2023-02-22T06:55:24;0.10;;;0.10;;
77204;SDS011;67992;46.618;18.850;2023-02-22T06:57:55;0.00;;;0.00;;
77204;SDS011;67992;46.618;18.850;2023-02-22T07:00:21;0.00;;;0.00;;
77204;SDS011;67992;46.618;18.850;2023-02-22T07:02:49;0.00;;;0.00;;
77204;SDS011;67992;46.618;18.850;2023-02-22T07:05:20;0.00;;;0.00;;
77204;SDS011;67992;46.618;18.850;2023-02-22T07:07:47;0.00;;;0.00;;
77204;SDS011;67992;46.618;18.850;2023-02-22T07:10:23;0.00;;;0.00;;
77204;SDS011;67992;46.618;18.850;2023-02-22T07:12:55;0.08;;;0.00;;
77204;SDS011;67992;46.618;18.850;2023-02-22T07:15:30;0.00;;;0.00;;
77204;SDS011;67992;46.618;18.850;2023-02-22T07:18:02;0.00;;;0.00;;
77204;SDS011;67992;46.618;18.850;2023-02-22T07:20:32;0.00;;;0.00;;
77204;SDS011;67992;46.618;18.850;2023-02-22T07:23:01;0.00;;;0.00;;
77204;SDS011;67992;46.618;18.850;2023-02-22T07:25:26;0.00;;;0.00;;
77204;SDS011;67992;46.618;18.850;2023-02-22T07:27:52;0.00;;;0.00;;
77204;SDS011;67992;46.618;18.850;2023-02-22T07:30:24;0.00;;;0.00;;
77204;SDS011;67992;46.618;18.850;2023-02-22T07:33:01;0.10;;;0.00;;
77204;SDS011;67992;46.618;18.850;2023-02-22T07:35:32;0.00;;;0.00;;
77204;SDS011;67992;46.618;18.850;2023-02-22T07:38:01;0.00;;;0.00;;
77204;SDS011;67992;46.618;18.850;2023-02-22T07:40:32;0.00;;;0.00;;
77204;SDS011;67992;46.618;18.850;2023-02-22T07:43:02;0.00;;;0.00;;
77204;SDS011;67992;46.618;18.850;2023-02-22T07:45:31;0.00;;;0.00;;
77204;SDS011;67992;46.618;18.850;2023-02-22T07:48:00;0.00;;;0.00;;
77204;SDS011;67992;46.618;18.850;2023-02-22T07:50:30;0.00;;;0.00;;
77204;SDS011;67992;46.618;18.850;2023-02-22T07:52:58;0.00;;;0.00;;
77204;SDS011;67992;46.618;18.850;2023-02-22T07:55:26;0.00;;;0.00;;
77204;SDS011;67992;46.618;18.850;2023-02-22T07:57:56;0.00;;;0.00;;
77204;SDS011;67992;46.618;18.850;2023-02-22T08:02:53;0.00;;;0.00;;
77204;SDS011;67992;46.618;18.850;2023-02-22T08:05:24;0.00;;;0.00;;
77204;SDS011;67992;46.618;18.850;2023-02-22T08:07:56;0.00;;;0.00;;
77204;SDS011;67992;46.618;18.850;2023-02-22T08:10:22;0.00;;;0.00;;
77204;SDS011;67992;46.618;18.850;2023-02-22T08:12:51;0.00;;;0.00;;
77204;SDS011;67992;46.618;18.850;2023-02-22T08:15:24;0.00;;;0.00;;
77204;SDS011;67992;46.618;18.850;2023-02-22T08:17:56;0.00;;;0.00;;
77204;SDS011;67992;46.618;18.850;2023-02-22T08:20:25;0.00;;;0.00;;
77204;SDS011;67992;46.618;18.850;2023-02-22T08:22:55;0.00;;;0.00;;
77204;SDS011;67992;46.618;18.850;2023-02-22T08:27:51;0.00;;;0.00;;
77204;SDS011;67992;46.618;18.850;2023-02-22T08:30:28;0.00;;;0.00;;
77204;SDS011;67992;46.618;18.850;2023-02-22T08:32:59;0.00;;;0.00;;
77204;SDS011;67992;46.618;18.850;2023-02-22T08:35:27;0.00;;;0.00;;
77204;SDS011;67992;46.618;18.850;2023-02-22T08:38:00;0.00;;;0.00;;
77204;SDS011;67992;46.618;18.850;2023-02-22T08:40:29;0.00;;;0.00;;
77204;SDS011;67992;46.618;18.850;2023-02-22T08:43:02;0.00;;;0.00;;
77204;SDS011;67992;46.618;18.850;2023-02-22T08:45:28;0.00;;;0.00;;
77204;SDS011;67992;46.618;18.850;2023-02-22T08:48:04;0.00;;;0.00;;
77204;SDS011;67992;46.618;18.850;2023-02-22T08:50:33;0.00;;;0.00;;
77204;SDS011;67992;46.618;18.850;2023-02-22T08:53:03;0.00;;;0.00;;
77204;SDS011;67992;46.618;18.850;2023-02-22T08:55:34;0.00;;;0.00;;
77204;SDS011;67992;46.618;18.850;2023-02-22T08:58:02;0.00;;;0.00;;
77204;SDS011;67992;46.618;18.850;2023-02-22T09:00:35;0.00;;;0.00;;
77204;SDS011;67992;46.618;18.850;2023-02-22T09:03:10;0.00;;;0.00;;
77204;SDS011;67992;46.618;18.850;2023-02-22T09:05:39;0.00;;;0.00;;
77204;SDS011;67992;46.618;18.850;2023-02-22T09:08:11;0.00;;;0.00;;
77204;SDS011;67992;46.618;18.850;2023-02-22T09:10:40;0.00;;;0.00;;
77204;SDS011;67992;46.618;18.850;2023-02-22T09:13:09;0.00;;;0.00;;
77204;SDS011;67992;46.618;18.850;2023-02-22T09:15:38;0.00;;;0.00;;
77204;SDS011;67992;46.618;18.850;2023-02-22T09:18:05;0.00;;;0.00;;
77204;SDS011;67992;46.618;18.850;2023-02-22T09:20:35;0.00;;;0.00;;
77204;SDS011;67992;46.618;18.850;2023-02-22T09:23:02;0.00;;;0.00;;
77204;SDS011;67992;46.618;18.850;2023-02-22T09:25:38;0.00;;;0.00;;
77204;SDS011;67992;46.618;18.850;2023-02-22T09:28:10;0.00;;;0.00;;
77204;SDS011;67992;46.618;18.850;2023-02-22T09:30:40;0.00;;;0.00;;
77204;SDS011;67992;46.618;18.850;2023-02-22T09:33:13;0.00;;;0.00;;
77204;SDS011;67992;46.618;18.850;2023-02-22T09:35:42;0.00;;;0.00;;
77204;SDS011;67992;46.618;18.850;2023-02-22T09:38:16;0.00;;;0.00;;
77204;SDS011;67992;46.618;18.850;2023-02-22T09:40:50;0.00;;;0.00;;
77204;SDS011;67992;46.618;18.850;2023-02-22T09:51:54;0.00;;;0.00;;
77204;SDS011;67992;46.618;18.850;2023-02-22T09:54:30;0.00;;;0.00;;
77204;SDS011;67992;46.618;18.850;2023-02-22T09:57:13;0.00;;;0.00;;
77204;SDS011;67992;46.618;18.850;2023-02-22T10:00:33;0.00;;;0.00;;
77204;SDS011;67992;46.618;18.850;2023-02-22T10:02:59;0.00;;;0.00;;
77204;SDS011;67992;46.618;18.850;2023-02-22T10:05:55;0.00;;;0.00;;
77204;SDS011;67992;46.618;18.850;2023-02-22T10:08:33;0.00;;;0.00;;
77204;SDS011;67992;46.618;18.850;2023-02-22T10:16:29;0.00;;;0.00;;
77204;SDS011;67992;46.618;18.850;2023-02-22T10:25:04;0.00;;;0.00;;
77204;SDS011;67992;46.618;18.850;2023-02-22T10:27:44;0.00;;;0.00;;
77204;SDS011;67992;46.618;18.850;2023-02-22T10:30:21;0.00;;;0.00;;
77204;SDS011;67992;46.618;18.850;2023-02-22T10:33:00;0.00;;;0.00;;
77204;SDS011;67992;46.618;18.850;2023-02-22T10:35:37;0.00;;;0.00;;
77204;SDS011;67992;46.618;18.850;2023-02-22T10:40:48;0.00;;;0.00;;
77204;SDS011;67992;46.618;18.850;2023-02-22T10:43:19;0.00;;;0.00;;
77204;SDS011;67992;46.618;18.850;2023-02-22T10:45:45;0.00;;;0.00;;
77204;SDS011;67992;46.618;18.850;2023-02-22T10:48:13;0.00;;;0.00;;
77204;SDS011;67992;46.618;18.850;2023-02-22T10:50:43;0.00;;;0.00;;
77204;SDS011;67992;46.618;18.850;2023-02-22T10:53:11;0.00;;;0.00;;
77204;SDS011;67992;46.618;18.850;2023-02-22T10:58:43;0.00;;;0.00;;
77204;SDS011;67992;46.618;18.850;2023-02-22T11:01:55;0.00;;;0.00;;
77204;SDS011;67992;46.618;18.850;2023-02-22T11:06:40;0.00;;;0.00;;
77204;SDS011;67992;46.618;18.850;2023-02-22T11:09:14;0.00;;;0.00;;
77204;SDS011;67992;46.618;18.850;2023-02-22T11:12:09;0.00;;;0.00;;
77204;SDS011;67992;46.618;18.850;2023-02-22T11:14:47;0.00;;;0.00;;
77204;SDS011;67992;46.618;18.850;2023-02-22T11:17:16;0.00;;;0.00;;
77204;SDS011;67992;46.618;18.850;2023-02-22T11:19:49;0.00;;;0.00;;
77204;SDS011;67992;46.618;18.850;2023-02-22T11:22:22;0.00;;;0.00;;
77204;SDS011;67992;46.618;18.850;2023-02-22T11:24:54;0.00;;;0.00;;
77204;SDS011;67992;46.618;18.850;2023-02-22T11:27:37;0.00;;;0.00;;
77204;SDS011;67992;46.618;18.850;2023-02-22T11:32:59;0.00;;;0.00;;
77204;SDS011;67992;46.618;18.850;2023-02-22T11:35:57;0.00;;;0.00;;
77204;SDS011;67992;46.618;18.850;2023-02-22T11:38:32;0.00;;;0.00;;
77204;SDS011;67992;46.618;18.850;2023-02-22T11:43:52;0.00;;;0.00;;
77204;SDS011;67992;46.618;18.850;2023-02-22T11:46:36;0.00;;;0.00;;
77204;SDS011;67992;46.618;18.850;2023-02-22T11:49:11;0.00;;;0.00;;
77204;SDS011;67992;46.618;18.850;2023-02-22T11:54:26;0.00;;;0.00;;
77204;SDS011;67992;46.618;18.850;2023-02-22T11:57:43;0.00;;;0.00;;
77204;SDS011;67992;46.618;18.850;2023-02-22T12:08:07;0.00;;;0.00;;
77204;SDS011;67992;46.618;18.850;2023-02-22T12:16:16;0.00;;;0.00;;
77204;SDS011;67992;46.618;18.850;2023-02-22T12:21:43;0.00;;;0.00;;
77204;SDS011;67992;46.618;18.850;2023-02-22T12:24:28;0.00;;;0.00;;
77204;SDS011;67992;46.618;18.850;2023-02-22T12:27:09;0.00;;;0.00;;
77204;SDS011;67992;46.618;18.850;2023-02-22T12:30:00;0.00;;;0.00;;
77204;SDS011;67992;46.618;18.850;2023-02-22T12:32:37;0.00;;;0.00;;
77204;SDS011;67992;46.618;18.850;2023-02-22T12:35:23;0.00;;;0.00;;
77204;SDS011;67992;46.618;18.850;2023-02-22T12:37:53;0.00;;;0.00;;
77204;SDS011;67992;46.618;18.850;2023-02-22T12:46:08;0.00;;;0.00;;
77204;SDS011;67992;46.618;18.850;2023-02-22T12:48:56;0.00;;;0.00;;
77204;SDS011;67992;46.618;18.850;2023-02-22T12:51:41;0.00;;;0.00;;
77204;SDS011;67992;46.618;18.850;2023-02-22T12:57:01;0.00;;;0.00;;
77204;SDS011;67992;46.618;18.850;2023-02-22T13:02:37;0.00;;;0.00;;
77204;SDS011;67992;46.618;18.850;2023-02-22T13:05:14;0.00;;;0.00;;
77204;SDS011;67992;46.618;18.850;2023-02-22T13:10:38;0.00;;;0.00;;
77204;SDS011;67992;46.618;18.850;2023-02-22T13:13:23;0.00;;;0.00;;
77204;SDS011;67992;46.618;18.850;2023-02-22T13:16:20;0.00;;;0.00;;
77204;SDS011;67992;46.618;18.850;2023-02-22T13:19:06;0.00;;;0.00;;
77204;SDS011;67992;46.618;18.850;2023-02-22T13:24:25;0.00;;;0.00;;
77204;SDS011;67992;46.618;18.850;2023-02-22T13:33:11;0.00;;;0.00;;
77204;SDS011;67992;46.618;18.850;2023-02-22T13:51:59;0.00;;;0.00;;
77204;SDS011;67992;46.618;18.850;2023-02-22T13:55:14;0.00;;;0.00;;
77204;SDS011;67992;46.618;18.850;2023-02-22T13:57:33;0.00;;;0.00;;
77204;SDS011;67992;46.618;18.850;2023-02-22T14:11:04;0.00;;;0.00;;
77204;SDS011;67992;46.618;18.850;2023-02-22T14:16:31;0.00;;;0.00;;
77204;SDS011;67992;46.618;18.850;2023-02-22T14:19:10;0.00;;;0.00;;
77204;SDS011;67992;46.618;18.850;2023-02-22T14:21:54;0.00;;;0.00;;
77204;SDS011;67992;46.618;18.850;2023-02-22T14:24:26;0.00;;;0.00;;
77204;SDS011;67992;46.618;18.850;2023-02-22T14:27:08;0.00;;;0.00;;
77204;SDS011;67992;46.618;18.850;2023-02-22T14:29:38;0.00;;;0.00;;
77204;SDS011;67992;46.618;18.850;2023-02-22T14:32:27;0.00;;;0.00;;
77204;SDS011;67992;46.618;18.850;2023-02-22T14:35:03;0.00;;;0.00;;
77204;SDS011;67992;46.618;18.850;2023-02-22T14:37:32;0.00;;;0.00;;
77204;SDS011;67992;46.618;18.850;2023-02-22T14:43:03;0.00;;;0.00;;
77204;SDS011;67992;46.618;18.850;2023-02-22T14:45:34;0.00;;;0.00;;
77204;SDS011;67992;46.618;18.850;2023-02-22T14:48:18;0.00;;;0.00;;
77204;SDS011;67992;46.618;18.850;2023-02-22T14:51:22;0.00;;;0.00;;
77204;SDS011;67992;46.618;18.850;2023-02-22T14:59:19;0.00;;;0.00;;
77204;SDS011;67992;46.618;18.850;2023-02-22T15:02:11;0.00;;;0.00;;
77204;SDS011;67992;46.618;18.850;2023-02-22T15:04:37;0.00;;;0.00;;
77204;SDS011;67992;46.618;18.850;2023-02-22T15:07:27;0.00;;;0.00;;
77204;SDS011;67992;46.618;18.850;2023-02-22T15:10:22;0.00;;;0.00;;
77204;SDS011;67992;46.618;18.850;2023-02-22T15:15:38;0.00;;;0.00;;
77204;SDS011;67992;46.618;18.850;2023-02-22T15:18:33;0.00;;;0.00;;
77204;SDS011;67992;46.618;18.850;2023-02-22T15:21:04;0.00;;;0.00;;
77204;SDS011;67992;46.618;18.850;2023-02-22T15:29:25;0.00;;;0.00;;
77204;SDS011;67992;46.618;18.850;2023-02-22T15:32:01;0.00;;;0.00;;
77204;SDS011;67992;46.618;18.850;2023-02-22T15:34:47;0.00;;;0.00;;
77204;SDS011;67992;46.618;18.850;2023-02-22T15:37:22;0.00;;;0.00;;
77204;SDS011;67992;46.618;18.850;2023-02-22T15:40:03;0.00;;;0.00;;
77204;SDS011;67992;46.618;18.850;2023-02-22T15:42:51;0.00;;;0.00;;
77204;SDS011;67992;46.618;18.850;2023-02-22T15:45:21;0.00;;;0.00;;
77204;SDS011;67992;46.618;18.850;2023-02-22T15:47:54;0.00;;;0.00;;
77204;SDS011;67992;46.618;18.850;2023-02-22T15:55:36;0.00;;;0.00;;
77204;SDS011;67992;46.618;18.850;2023-02-22T15:58:20;0.00;;;0.00;;
77204;SDS011;67992;46.618;18.850;2023-02-22T16:03:30;0.00;;;0.00;;
77204;SDS011;67992;46.618;18.850;2023-02-22T16:06:07;0.00;;;0.00;;
77204;SDS011;67992;46.618;18.850;2023-02-22T16:11:29;0.00;;;0.00;;
77204;SDS011;67992;46.618;18.850;2023-02-22T16:14:22;0.00;;;0.00;;
77204;SDS011;67992;46.618;18.850;2023-02-22T16:19:39;0.00;;;0.00;;
77204;SDS011;67992;46.618;18.850;2023-02-22T16:22:33;0.70;;;0.57;;
77204;SDS011;67992;46.618;18.850;2023-02-22T16:25:13;1.38;;;0.82;;
77204;SDS011;67992;46.618;18.850;2023-02-22T16:27:44;2.20;;;1.65;;
77204;SDS011;67992;46.618;18.850;2023-02-22T16:30:21;0.75;;;0.55;;
77204;SDS011;67992;46.618;18.850;2023-02-22T16:32:53;0.45;;;0.40;;
77204;SDS011;67992;46.618;18.850;2023-02-22T16:35:25;0.30;;;0.30;;
77204;SDS011;67992;46.618;18.850;2023-02-22T16:37:56;0.00;;;0.00;;
77204;SDS011;67992;46.618;18.850;2023-02-22T16:40:27;0.03;;;0.03;;
77204;SDS011;67992;46.618;18.850;2023-02-22T16:43:02;0.10;;;0.00;;
77204;SDS011;67992;46.618;18.850;2023-02-22T16:45:32;0.10;;;0.10;;
77204;SDS011;67992;46.618;18.850;2023-02-22T16:47:58;0.13;;;0.13;;
77204;SDS011;67992;46.618;18.850;2023-02-22T16:50:38;0.08;;;0.08;;
77204;SDS011;67992;46.618;18.850;2023-02-22T16:53:09;0.08;;;0.08;;
77204;SDS011;67992;46.618;18.850;2023-02-22T16:55:35;0.00;;;0.00;;
77204;SDS011;67992;46.618;18.850;2023-02-22T16:58:03;0.00;;;0.00;;
77204;SDS011;67992;46.618;18.850;2023-02-22T17:00:40;0.00;;;0.00;;
77204;SDS011;67992;46.618;18.850;2023-02-22T17:03:08;0.00;;;0.00;;
77204;SDS011;67992;46.618;18.850;2023-02-22T17:05:38;0.00;;;0.00;;
77204;SDS011;67992;46.618;18.850;2023-02-22T17:08:12;0.05;;;0.05;;
77204;SDS011;67992;46.618;18.850;2023-02-22T17:10:40;0.08;;;0.00;;
77204;SDS011;67992;46.618;18.850;2023-02-22T17:13:09;0.00;;;0.00;;
77204;SDS011;67992;46.618;18.850;2023-02-22T17:15:44;0.20;;;0.20;;
77204;SDS011;67992;46.618;18.850;2023-02-22T17:18:14;0.15;;;0.10;;
77204;SDS011;67992;46.618;18.850;2023-02-22T17:20:47;0.00;;;0.00;;
77204;SDS011;67992;46.618;18.850;2023-02-22T17:23:14;0.00;;;0.00;;
77204;SDS011;67992;46.618;18.850;2023-02-22T17:25:41;0.03;;;0.03;;
77204;SDS011;67992;46.618;18.850;2023-02-22T17:28:18;0.13;;;0.10;;
77204;SDS011;67992;46.618;18.850;2023-02-22T17:30:47;0.10;;;0.10;;
77204;SDS011;67992;46.618;18.850;2023-02-22T17:33:16;0.13;;;0.10;;
77204;SDS011;67992;46.618;18.850;2023-02-22T17:35:45;0.20;;;0.20;;
77204;SDS011;67992;46.618;18.850;2023-02-22T17:38:14;0.20;;;0.20;;
77204;SDS011;67992;46.618;18.850;2023-02-22T17:40:51;0.20;;;0.20;;
77204;SDS011;67992;46.618;18.850;2023-02-22T17:43:19;0.00;;;0.00;;
77204;SDS011;67992;46.618;18.850;2023-02-22T17:45:52;0.10;;;0.10;;
77204;SDS011;67992;46.618;18.850;2023-02-22T17:48:23;0.00;;;0.00;;
77204;SDS011;67992;46.618;18.850;2023-02-22T17:50:52;0.00;;;0.00;;
77204;SDS011;67992;46.618;18.850;2023-02-22T17:53:20;0.00;;;0.00;;
77204;SDS011;67992;46.618;18.850;2023-02-22T17:55:51;0.00;;;0.00;;
77204;SDS011;67992;46.618;18.850;2023-02-22T17:58:18;0.00;;;0.00;;
77204;SDS011;67992;46.618;18.850;2023-02-22T18:00:49;0.10;;;0.10;;
77204;SDS011;67992;46.618;18.850;2023-02-22T18:03:24;0.00;;;0.00;;
77204;SDS011;67992;46.618;18.850;2023-02-22T18:05:57;0.00;;;0.00;;
77204;SDS011;67992;46.618;18.850;2023-02-22T18:08:26;0.00;;;0.00;;
77204;SDS011;67992;46.618;18.850;2023-02-22T18:10:56;0.00;;;0.00;;
77204;SDS011;67992;46.618;18.850;2023-02-22T18:13:26;0.00;;;0.00;;
77204;SDS011;67992;46.618;18.850;2023-02-22T18:15:52;0.00;;;0.00;;
77204;SDS011;67992;46.618;18.850;2023-02-22T18:18:27;0.00;;;0.00;;
77204;SDS011;67992;46.618;18.850;2023-02-22T18:20:53;0.00;;;0.00;;
77204;SDS011;67992;46.618;18.850;2023-02-22T18:23:27;0.08;;;0.00;;